Time,TemperatureF,DewpointF,PressureIn,WindDirection,WindDirectionDegrees,WindSpeedMPH,WindSpeedGustMPH,Humidity,HourlyPrecipIn,Conditions,Clouds,dailyrainin,SoftwareType,DateUTC
2013-11-17 10:40:00,-999.0,-99.9,0.00,North,-999,-999.0,-999.0,-999,0.00,,,0.00,weatherlink.com 1.10,2013-11-17 15:40:00,
2013-11-17 10:55:00,54.4,53.0,30.17,SSE,168,0.0,1.0,95,0.00,,,0.00,weatherlink.com 1.10,2013-11-17 15:55:00,
2013-11-17 11:11:00,54.6,53.0,30.16,SSE,149,0.0,2.0,95,0.00,,,0.00,weatherlink.com 1.10,2013-11-17 16:11:00,
2013-11-17 11:25:00,55.3,54.0,30.15,South,170,0.0,1.0,95,0.00,,,0.00,weatherlink.com 1.10,2013-11-17 16:25:00,
2013-11-17 11:40:00,55.9,54.0,30.14,SSE,150,0.0,2.0,94,0.00,,,0.00,weatherlink.com 1.10,2013-11-17 16:40:00,
2013-11-17 11:55:00,56.1,54.0,30.14,SE,133,0.0,1.0,94,0.00,,,0.00,weatherlink.com 1.10,2013-11-17 16:55:00,
2013-11-17 12:10:00,56.0,55.0,30.14,South,183,1.0,1.0,95,0.00,,,0.00,weatherlink.com 1.10,2013-11-17 17:10:00,
2013-11-17 12:26:00,55.8,54.0,30.12,ENE,58,0.0,2.0,95,0.00,,,0.00,weatherlink.com 1.10,2013-11-17 17:26:00,
2013-11-17 12:41:00,55.8,55.0,30.11,ENE,58,0.0,1.0,97,0.00,,,0.00,weatherlink.com 1.10,2013-11-17 17:41:00,
2013-11-17 12:56:00,55.9,55.0,30.11,ENE,58,0.0,1.0,97,0.00,,,0.00,weatherlink.com 1.10,2013-11-17 17:56:00,
2013-11-17 13:11:00,56.0,55.0,30.10,ENE,60,0.0,1.0,97,0.00,,,0.00,weatherlink.com 1.10,2013-11-17 18:11:00,
2013-11-17 13:26:00,56.2,55.0,30.09,ENE,60,0.0,1.0,97,0.00,,,0.00,weatherlink.com 1.10,2013-11-17 18:26:00,
2013-11-17 13:41:00,56.4,56.0,30.08,ENE,59,0.0,0.0,98,0.00,,,0.00,weatherlink.com 1.10,2013-11-17 18:41:00,
2013-11-17 13:56:00,56.6,56.0,30.07,SE,136,0.0,1.0,98,0.00,,,0.00,weatherlink.com 1.10,2013-11-17 18:56:00,
2013-11-17 14:11:00,56.8,56.0,30.07,SSE,168,0.0,0.0,98,0.00,,,0.00,weatherlink.com 1.10,2013-11-17 19:11:00,
2013-11-17 14:26:00,56.9,56.0,30.07,SSE,168,0.0,0.0,98,0.00,,,0.00,weatherlink.com 1.10,2013-11-17 19:26:00,
2013-11-17 14:41:00,56.9,56.0,30.06,SSE,151,1.0,2.0,98,0.00,,,0.00,weatherlink.com 1.10,2013-11-17 19:41:00,
2013-11-17 14:56:00,56.9,56.0,30.06,SSE,151,0.0,0.0,98,0.00,,,0.00,weatherlink.com 1.10,2013-11-17 19:56:00,
2013-11-17 15:11:00,57.1,57.0,30.05,SSE,151,0.0,0.0,98,0.00,,,0.00,weatherlink.com 1.10,2013-11-17 20:11:00,
2013-11-17 15:26:00,57.2,57.0,30.05,SSE,150,0.0,0.0,98,0.00,,,0.00,weatherlink.com 1.10,2013-11-17 20:26:00,
2013-11-17 15:41:00,57.3,57.0,30.04,SSE,150,0.0,1.0,98,0.00,,,0.00,weatherlink.com 1.10,2013-11-17 20:41:00,
2013-11-17 15:56:00,57.6,57.0,30.03,SSE,153,0.0,1.0,98,0.01,,,0.01,weatherlink.com 1.10,2013-11-17 20:56:00,
2013-11-17 16:11:00,57.7,58.0,30.03,SSE,158,0.0,1.0,99,0.01,,,0.01,weatherlink.com 1.10,2013-11-17 21:11:00,
2013-11-17 16:26:00,57.7,57.0,30.02,SSE,158,0.0,1.0,98,0.02,,,0.02,weatherlink.com 1.10,2013-11-17 21:26:00,
2013-11-17 16:41:00,57.7,57.0,30.02,SSE,154,0.0,0.0,98,0.02,,,0.02,weatherlink.com 1.10,2013-11-17 21:41:00,
2013-11-17 16:56:00,57.7,57.0,30.01,SSE,155,0.0,0.0,98,0.01,,,0.02,weatherlink.com 1.10,2013-11-17 21:56:00,
2013-11-17 17:11:00,57.9,58.0,30.01,SSE,167,0.0,2.0,99,0.01,,,0.02,weatherlink.com 1.10,2013-11-17 22:11:00,
2013-11-17 17:26:00,57.9,58.0,30.00,SSE,168,0.0,1.0,99,0.00,,,0.02,weatherlink.com 1.10,2013-11-17 22:26:00,
2013-11-17 17:41:00,57.9,58.0,30.00,SSE,162,0.0,0.0,99,0.00,,,0.02,weatherlink.com 1.10,2013-11-17 22:41:00,
2013-11-17 17:56:00,57.7,58.0,29.99,South,184,0.0,1.0,99,0.00,,,0.02,weatherlink.com 1.10,2013-11-17 22:56:00,
2013-11-17 18:11:00,57.8,58.0,29.98,SSW,196,0.0,1.0,99,0.00,,,0.02,weatherlink.com 1.10,2013-11-17 23:11:00,
2013-11-17 18:26:00,57.8,58.0,29.96,SSE,164,0.0,1.0,99,0.00,,,0.02,weatherlink.com 1.10,2013-11-17 23:26:00,
2013-11-17 18:41:00,57.9,58.0,29.96,South,169,0.0,1.0,99,0.00,,,0.02,weatherlink.com 1.10,2013-11-17 23:41:00,
2013-11-17 18:56:00,58.0,58.0,29.96,SE,141,0.0,4.0,99,0.00,,,0.02,weatherlink.com 1.10,2013-11-17 23:56:00,
2013-11-17 19:11:00,58.0,58.0,29.96,SSE,156,0.0,1.0,99,0.00,,,0.02,weatherlink.com 1.10,2013-11-18 00:11:00,
2013-11-17 19:26:00,57.9,58.0,29.96,SSE,166,2.0,2.0,99,0.00,,,0.02,weatherlink.com 1.10,2013-11-18 00:26:00,
2013-11-17 19:41:00,57.9,58.0,29.96,South,169,0.0,2.0,99,0.00,,,0.02,weatherlink.com 1.10,2013-11-18 00:41:00,
2013-11-17 19:56:00,57.9,58.0,29.95,SE,141,0.0,1.0,99,0.00,,,0.02,weatherlink.com 1.10,2013-11-18 00:56:00,
2013-11-17 20:11:00,57.8,58.0,29.94,SSE,150,1.0,4.0,99,0.00,,,0.02,weatherlink.com 1.10,2013-11-18 01:11:00,
2013-11-17 20:27:00,57.8,58.0,29.93,SSW,196,0.0,3.0,99,0.00,,,0.02,weatherlink.com 1.10,2013-11-18 01:27:00,
2013-11-17 20:43:00,57.6,57.0,29.92,South,188,0.0,2.0,99,0.00,,,0.02,weatherlink.com 1.10,2013-11-18 01:43:00,
2013-11-17 20:57:00,57.4,57.0,29.91,SSE,160,0.0,3.0,99,0.00,,,0.02,weatherlink.com 1.10,2013-11-18 01:57:00,
2013-11-17 21:12:00,57.3,57.0,29.90,SE,140,1.0,1.0,99,0.00,,,0.02,weatherlink.com 1.10,2013-11-18 02:12:00,
2013-11-17 21:27:00,57.2,57.0,29.90,SSE,156,1.0,6.0,99,0.00,,,0.02,weatherlink.com 1.10,2013-11-18 02:27:00,
2013-11-17 21:42:00,57.0,57.0,29.89,SE,142,0.0,1.0,99,0.00,,,0.02,weatherlink.com 1.10,2013-11-18 02:42:00,
2013-11-17 21:57:00,56.9,57.0,29.88,SSE,160,0.0,1.0,99,0.00,,,0.02,weatherlink.com 1.10,2013-11-18 02:57:00,
2013-11-17 22:12:00,56.8,57.0,29.86,SE,139,0.0,3.0,99,0.00,,,0.02,weatherlink.com 1.10,2013-11-18 03:12:00,
2013-11-17 22:27:00,56.7,57.0,29.85,South,175,0.0,1.0,99,0.00,,,0.02,weatherlink.com 1.10,2013-11-18 03:27:00,
2013-11-17 22:42:00,56.7,57.0,29.83,South,170,0.0,2.0,99,0.01,,,0.03,weatherlink.com 1.10,2013-11-18 03:42:00,
2013-11-17 22:57:00,56.7,57.0,29.83,SSE,150,0.0,2.0,99,0.01,,,0.03,weatherlink.com 1.10,2013-11-18 03:57:00,
2013-11-17 23:12:00,56.6,56.0,29.83,SSE,162,0.0,1.0,99,0.01,,,0.03,weatherlink.com 1.10,2013-11-18 04:12:00,
2013-11-17 23:27:00,56.5,56.0,29.82,SW,229,0.0,2.0,99,0.02,,,0.04,weatherlink.com 1.10,2013-11-18 04:27:00,
2013-11-17 23:42:00,56.3,56.0,29.80,SE,144,0.0,1.0,99,0.01,,,0.04,weatherlink.com 1.10,2013-11-18 04:42:00,
2013-11-17 23:57:00,56.4,56.0,29.80,SSE,157,0.0,1.0,99,0.01,,,0.04,weatherlink.com 1.10,2013-11-18 04:57:00,